Time;durP1;ratioP1;P1;durP2;ratioP2;P2;SDS_P1;SDS_P2;PMS_P1;PMS_P2;Temp;Humidity;BMP_temperature;BMP_pressure;BME280_temperature;BME280_humidity;BME280_pressure;Samples;Min_cycle;Max_cycle;Signal;HPM_P1;HPM_P2
2022/07/26 00:01:21;;;;;;;10.82;1.70;;;19.20;99.90;;;;;;4996016;28;20034;-72
2022/07/26 00:03:48;;;;;;;8.00;1.95;;;19.20;99.90;;;;;;4999632;28;20049;-72
2022/07/26 00:06:14;;;;;;;20.25;2.05;;;19.20;99.90;;;;;;5000075;28;20030;-73
2022/07/26 00:08:40;;;;;;;11.02;1.67;;;19.20;99.90;;;;;;4999580;28;20045;-72
2022/07/26 00:11:05;;;;;;;11.60;1.75;;;19.20;99.90;;;;;;5005990;28;20471;-72
2022/07/26 00:13:31;;;;;;;11.48;1.73;;;19.30;99.90;;;;;;5005138;28;20050;-73
2022/07/26 00:15:57;;;;;;;10.00;1.40;;;19.30;99.90;;;;;;5001869;28;20034;-72
2022/07/26 00:18:23;;;;;;;11.77;1.75;;;19.30;99.90;;;;;;4997430;28;20136;-73
2022/07/26 00:20:48;;;;;;;10.15;2.10;;;19.40;99.90;;;;;;5005288;28;20079;-72
2022/07/26 00:23:14;;;;;;;12.93;2.42;;;19.40;99.90;;;;;;4998524;28;20045;-72
2022/07/26 00:25:40;;;;;;;10.18;1.80;;;19.40;99.90;;;;;;5006641;28;20034;-72
2022/07/26 00:28:06;;;;;;;6.28;1.55;;;19.40;99.90;;;;;;4999657;28;20025;-72
2022/07/26 00:30:33;;;;;;;13.65;2.40;;;19.50;99.90;;;;;;5009667;28;20560;-72
2022/07/26 00:32:58;;;;;;;9.27;1.73;;;19.50;99.90;;;;;;5006157;28;20091;-72
2022/07/26 00:35:24;;;;;;;11.48;1.95;;;19.50;99.90;;;;;;5005486;28;20491;-72
2022/07/26 00:37:49;;;;;;;10.57;1.77;;;19.50;99.90;;;;;;5003967;28;20026;-72
2022/07/26 00:40:15;;;;;;;7.68;1.38;;;19.50;99.90;;;;;;5003504;28;20034;-71
2022/07/26 00:42:42;;;;;;;10.00;1.00;;;19.50;99.90;;;;;;4999049;28;20077;-73
2022/07/26 00:45:09;;;;;;;6.85;1.38;;;19.60;99.90;;;;;;4999402;28;20072;-72
2022/07/26 00:47:35;;;;;;;6.78;1.08;;;19.60;99.90;;;;;;5009349;28;20033;-72
2022/07/26 00:50:01;;;;;;;5.43;0.80;;;19.60;99.90;;;;;;4998137;28;20065;-72
2022/07/26 00:52:27;;;;;;;4.90;0.95;;;19.60;99.90;;;;;;5000137;28;20041;-71
2022/07/26 00:54:54;;;;;;;5.82;0.73;;;19.60;99.90;;;;;;4997516;28;20030;-72
2022/07/26 00:57:22;;;;;;;9.27;1.05;;;19.60;99.90;;;;;;5000370;28;20122;-74
2022/07/26 00:59:48;;;;;;;8.55;1.15;;;19.60;99.90;;;;;;4999096;28;20018;-71
2022/07/26 01:02:14;;;;;;;4.90;0.90;;;19.50;99.90;;;;;;4999234;28;20077;-72
2022/07/26 01:04:40;;;;;;;8.70;0.80;;;19.50;99.90;;;;;;5006859;28;20441;-72
2022/07/26 01:07:06;;;;;;;11.00;0.85;;;19.50;99.90;;;;;;4998306;28;20057;-71
2022/07/26 01:09:32;;;;;;;3.42;0.50;;;19.50;99.90;;;;;;5000597;28;20464;-72
2022/07/26 01:11:58;;;;;;;0.98;0.43;;;19.40;99.90;;;;;;4997080;28;20038;-72
2022/07/26 01:14:24;;;;;;;1.98;0.35;;;19.50;99.90;;;;;;4998051;28;20460;-72
2022/07/26 01:16:50;;;;;;;5.32;1.15;;;19.40;99.90;;;;;;4998561;28;20048;-72
2022/07/26 01:19:17;;;;;;;3.35;0.77;;;19.40;99.90;;;;;;4999221;28;20089;-72
2022/07/26 01:21:43;;;;;;;1.92;0.57;;;19.30;99.90;;;;;;4999551;28;20064;-73
2022/07/26 01:24:09;;;;;;;6.05;0.88;;;19.40;99.90;;;;;;4996471;28;20026;-72
2022/07/26 01:26:34;;;;;;;2.40;0.50;;;19.40;99.90;;;;;;5005659;28;20089;-72
2022/07/26 01:29:00;;;;;;;1.95;0.65;;;19.40;99.90;;;;;;5000715;28;20145;-72
2022/07/26 01:31:26;;;;;;;3.83;0.55;;;19.40;99.90;;;;;;5006839;28;20037;-72
2022/07/26 01:33:51;;;;;;;2.35;0.60;;;19.40;99.90;;;;;;4999545;28;20038;-72
2022/07/26 01:36:18;;;;;;;2.42;0.60;;;19.40;99.90;;;;;;4996365;28;20061;-72
2022/07/26 01:38:44;;;;;;;3.08;0.40;;;19.40;99.90;;;;;;5004684;28;20659;-72
2022/07/26 01:41:10;;;;;;;2.38;0.50;;;19.30;99.90;;;;;;4998373;28;20035;-72
2022/07/26 01:43:36;;;;;;;2.40;0.55;;;19.40;99.90;;;;;;4998840;28;20037;-72
2022/07/26 01:46:03;;;;;;;3.03;0.80;;;19.40;99.90;;;;;;4996476;28;20053;-72
2022/07/26 01:48:29;;;;;;;2.50;0.40;;;19.40;99.90;;;;;;4999533;28;20397;-72
2022/07/26 01:50:55;;;;;;;0.85;0.35;;;19.40;99.90;;;;;;4997376;28;20050;-72
2022/07/26 01:53:21;;;;;;;2.58;0.93;;;19.30;99.90;;;;;;4998483;28;20046;-73
2022/07/26 01:55:46;;;;;;;3.42;0.65;;;19.20;99.90;;;;;;4998054;28;20032;-71
2022/07/26 01:58:12;;;;;;;3.78;0.50;;;19.20;99.90;;;;;;4998188;28;20057;-73
2022/07/26 02:00:37;;;;;;;3.63;0.52;;;19.20;99.90;;;;;;4997888;28;20034;-71
2022/07/26 02:03:03;;;;;;;4.03;0.88;;;19.20;99.90;;;;;;4997062;28;20554;-72
2022/07/26 02:05:29;;;;;;;0.93;0.40;;;19.20;99.90;;;;;;4997834;28;20041;-72
2022/07/26 02:07:55;;;;;;;2.25;0.40;;;19.20;99.90;;;;;;4997034;28;20022;-72
2022/07/26 02:10:20;;;;;;;0.98;0.45;;;19.10;99.90;;;;;;4999159;28;20406;-72
2022/07/26 02:12:46;;;;;;;6.78;0.70;;;19.20;99.90;;;;;;4996964;28;20702;-71
2022/07/26 02:15:13;;;;;;;4.82;0.65;;;19.10;99.90;;;;;;5013561;28;20074;-72
2022/07/26 02:17:39;;;;;;;5.72;1.10;;;19.10;99.90;;;;;;4997124;28;20025;-72
2022/07/26 02:20:05;;;;;;;1.83;0.40;;;19.00;99.90;;;;;;5012642;28;20519;-72
2022/07/26 02:22:31;;;;;;;2.63;0.52;;;19.00;99.90;;;;;;4997370;28;20113;-72
2022/07/26 02:24:56;;;;;;;3.28;0.40;;;19.00;99.90;;;;;;5000447;28;20117;-73
2022/07/26 02:27:22;;;;;;;3.83;0.50;;;19.00;99.90;;;;;;5000206;28;20039;-73
2022/07/26 02:29:48;;;;;;;2.70;0.40;;;19.00;99.90;;;;;;5003085;28;20550;-72
2022/07/26 02:32:13;;;;;;;2.38;0.40;;;18.90;99.90;;;;;;5005712;28;20113;-73
2022/07/26 02:34:39;;;;;;;2.38;0.40;;;18.90;99.90;;;;;;5000023;28;20487;-72
2022/07/26 02:37:04;;;;;;;4.25;0.40;;;18.90;99.90;;;;;;4997759;28;20034;-71
2022/07/26 02:39:30;;;;;;;4.25;0.50;;;19.00;99.90;;;;;;5004164;28;20042;-72
2022/07/26 02:41:58;;;;;;;2.10;0.32;;;18.90;99.90;;;;;;4996768;28;20034;-72
2022/07/26 02:44:24;;;;;;;3.60;0.77;;;18.90;99.90;;;;;;4998465;28;20034;-72
2022/07/26 02:46:50;;;;;;;5.60;0.75;;;18.80;99.90;;;;;;4995705;28;20038;-71
2022/07/26 02:49:16;;;;;;;4.00;0.50;;;18.80;99.90;;;;;;4997945;28;20045;-72
2022/07/26 02:51:42;;;;;;;4.05;0.80;;;18.70;99.90;;;;;;4997359;28;20041;-72
2022/07/26 02:54:07;;;;;;;3.42;0.70;;;18.80;99.90;;;;;;4996245;28;20034;-72
2022/07/26 02:56:33;;;;;;;2.83;0.47;;;18.70;99.90;;;;;;4998141;28;20033;-72
2022/07/26 02:58:58;;;;;;;1.77;0.70;;;18.60;99.90;;;;;;4996866;28;20049;-72
2022/07/26 03:01:24;;;;;;;3.60;0.50;;;18.60;99.90;;;;;;4998428;28;20045;-72
2022/07/26 03:03:50;;;;;;;6.90;1.17;;;18.60;99.90;;;;;;4995368;28;20042;-72
2022/07/26 03:06:16;;;;;;;2.95;0.70;;;18.60;99.90;;;;;;4996910;28;20038;-73
2022/07/26 03:08:41;;;;;;;2.38;0.70;;;18.60;99.90;;;;;;4997171;28;20029;-72
2022/07/26 03:11:07;;;;;;;2.58;0.47;;;18.60;99.90;;;;;;4997251;28;20127;-72
2022/07/26 03:13:33;;;;;;;3.58;1.35;;;18.60;99.90;;;;;;4997363;28;20045;-72
2022/07/26 03:15:58;;;;;;;0.90;0.43;;;18.60;99.90;;;;;;4995860;28;20041;-72
2022/07/26 03:18:24;;;;;;;4.07;0.60;;;18.60;99.90;;;;;;4997247;28;20119;-72
2022/07/26 03:20:49;;;;;;;2.85;0.75;;;18.50;99.90;;;;;;4996020;28;20057;-72
2022/07/26 03:23:16;;;;;;;5.05;1.25;;;18.50;99.90;;;;;;4997560;28;20494;-72
2022/07/26 03:25:42;;;;;;;7.50;1.58;;;18.50;99.90;;;;;;5002339;28;20121;-70
2022/07/26 03:28:07;;;;;;;2.70;0.40;;;18.50;99.90;;;;;;4996052;28;20110;-70
2022/07/26 03:30:33;;;;;;;2.92;0.77;;;18.50;99.90;;;;;;5000421;28;20461;-70
2022/07/26 03:32:59;;;;;;;6.50;0.90;;;18.40;99.90;;;;;;5006803;28;20038;-70
2022/07/26 03:35:25;;;;;;;2.53;0.55;;;18.40;99.90;;;;;;4997360;28;20479;-70
2022/07/26 03:37:51;;;;;;;3.45;0.90;;;18.30;99.90;;;;;;5000549;28;20036;-70
2022/07/26 03:40:17;;;;;;;5.95;1.45;;;18.30;99.90;;;;;;4997312;28;20038;-69
2022/07/26 03:42:47;;;;;;;2.25;0.73;;;18.20;99.90;;;;;;4995822;28;21078;-70
2022/07/26 03:45:14;;;;;;;7.57;0.90;;;18.10;99.90;;;;;;4998208;28;20042;-70
2022/07/26 03:47:40;;;;;;;4.25;0.70;;;18.10;99.90;;;;;;4994794;28;20031;-70
2022/07/26 03:50:07;;;;;;;3.47;0.40;;;18.00;99.90;;;;;;4995034;28;20121;-69
2022/07/26 03:52:33;;;;;;;1.98;1.00;;;18.00;99.90;;;;;;4996418;28;20130;-69
2022/07/26 03:54:59;;;;;;;3.67;0.60;;;17.90;99.90;;;;;;4998352;28;20029;-70
2022/07/26 03:57:25;;;;;;;1.23;0.40;;;17.90;99.90;;;;;;4995450;28;20034;-70
2022/07/26 03:59:50;;;;;;;5.10;0.43;;;17.80;99.90;;;;;;4999215;28;20034;-70
2022/07/26 04:02:16;;;;;;;3.80;0.60;;;17.80;99.90;;;;;;4998365;28;20048;-70
2022/07/26 04:04:42;;;;;;;2.97;0.95;;;17.80;99.90;;;;;;4995954;28;20034;-70
2022/07/26 04:07:07;;;;;;;2.55;0.68;;;17.80;99.90;;;;;;4997939;28;20049;-70
2022/07/26 04:09:33;;;;;;;5.05;1.20;;;17.70;99.90;;;;;;4996830;28;20478;-70
2022/07/26 04:11:59;;;;;;;3.72;0.80;;;17.70;99.90;;;;;;5011897;28;20177;-70
2022/07/26 04:14:25;;;;;;;8.55;1.10;;;17.70;99.90;;;;;;4996610;28;20057;-70
2022/07/26 04:16:51;;;;;;;3.45;0.80;;;17.70;99.90;;;;;;4996020;28;20087;-70
2022/07/26 04:19:16;;;;;;;2.58;0.70;;;17.60;99.90;;;;;;4995023;28;20046;-71
2022/07/26 04:21:42;;;;;;;4.10;0.75;;;17.60;99.90;;;;;;4997008;28;20050;-71
2022/07/26 04:24:08;;;;;;;2.70;0.70;;;17.60;99.90;;;;;;4995935;28;20054;-70
2022/07/26 04:26:33;;;;;;;3.80;0.80;;;17.60;99.90;;;;;;5000315;28;20069;-70
2022/07/26 04:28:59;;;;;;;4.63;0.68;;;17.60;99.90;;;;;;4997627;28;20038;-70
2022/07/26 04:31:24;;;;;;;6.88;0.98;;;17.60;99.90;;;;;;4998800;28;20049;-70
2022/07/26 04:33:51;;;;;;;1.80;0.60;;;17.70;99.90;;;;;;4995374;28;20502;-70
2022/07/26 04:36:17;;;;;;;4.40;0.60;;;17.70;99.90;;;;;;4995969;28;20556;-70
2022/07/26 04:38:42;;;;;;;8.45;1.23;;;17.70;99.90;;;;;;4997108;28;20030;-70
2022/07/26 04:41:08;;;;;;;4.43;1.50;;;17.70;99.90;;;;;;4994442;28;20368;-70
2022/07/26 04:43:34;;;;;;;5.78;0.80;;;17.80;99.90;;;;;;5001001;28;20045;-70
2022/07/26 04:46:00;;;;;;;4.97;1.17;;;17.80;99.90;;;;;;5000294;28;20046;-70
2022/07/26 04:48:26;;;;;;;3.75;0.80;;;17.80;99.90;;;;;;4997858;28;20038;-70
2022/07/26 04:50:52;;;;;;;7.13;1.08;;;17.90;99.90;;;;;;5000628;28;20704;-70
2022/07/26 04:53:18;;;;;;;4.53;0.80;;;17.90;99.90;;;;;;4997745;28;20041;-70
2022/07/26 04:55:43;;;;;;;2.35;0.50;;;18.00;99.90;;;;;;5001458;28;20034;-71
2022/07/26 04:58:09;;;;;;;4.20;0.90;;;18.00;99.90;;;;;;4992299;28;20045;-70
2022/07/26 05:00:36;;;;;;;3.80;0.75;;;18.00;99.90;;;;;;5007572;28;20040;-71
2022/07/26 05:03:02;;;;;;;3.00;0.82;;;18.00;99.90;;;;;;5006157;28;20030;-69
2022/07/26 05:05:30;;;;;;;3.60;1.00;;;18.00;99.90;;;;;;5003275;28;20406;-70
2022/07/26 05:07:58;;;;;;;1.88;0.60;;;18.10;99.90;;;;;;5004301;28;20073;-71
2022/07/26 05:10:30;;;;;;;4.95;0.73;;;18.10;99.90;;;;;;5004046;28;20109;-70
2022/07/26 05:12:56;;;;;;;4.65;0.80;;;18.10;99.90;;;;;;5006014;28;20124;-70
2022/07/26 05:15:22;;;;;;;3.97;0.60;;;18.10;99.90;;;;;;5005489;28;20176;-71
2022/07/26 05:17:47;;;;;;;3.08;0.80;;;18.10;99.90;;;;;;5005141;28;20034;-70
2022/07/26 05:20:15;;;;;;;5.97;0.70;;;18.10;99.90;;;;;;5004508;28;20061;-71
2022/07/26 05:22:41;;;;;;;2.83;0.50;;;18.10;99.90;;;;;;5003434;28;20026;-69
2022/07/26 05:25:07;;;;;;;2.53;0.50;;;18.00;99.90;;;;;;5002718;28;20045;-70
2022/07/26 05:27:32;;;;;;;1.95;0.73;;;18.00;99.90;;;;;;5003048;28;20473;-70
2022/07/26 05:29:58;;;;;;;5.13;0.63;;;17.90;99.90;;;;;;5004955;28;20101;-70
2022/07/26 05:32:23;;;;;;;1.55;0.45;;;17.90;99.90;;;;;;5003567;28;20056;-67
2022/07/26 05:34:49;;;;;;;5.75;0.60;;;17.80;99.90;;;;;;5005401;28;20142;-70
2022/07/26 05:37:15;;;;;;;2.30;0.60;;;17.80;99.90;;;;;;5004945;28;20040;-71
2022/07/26 05:39:41;;;;;;;3.28;0.50;;;17.80;99.90;;;;;;5006509;28;20042;-70
2022/07/26 05:42:06;;;;;;;5.60;0.45;;;17.70;99.90;;;;;;5003382;28;20555;-68
2022/07/26 05:44:32;;;;;;;3.22;0.77;;;17.70;99.90;;;;;;5002996;28;20030;-70
2022/07/26 05:46:57;;;;;;;4.53;0.52;;;17.70;99.90;;;;;;5005811;28;20029;-70
2022/07/26 05:49:24;;;;;;;2.95;0.60;;;17.70;99.90;;;;;;5003474;28;20042;-70
2022/07/26 05:51:50;;;;;;;1.85;0.50;;;17.70;99.90;;;;;;5004916;28;20022;-70
2022/07/26 05:54:17;;;;;;;3.33;0.50;;;17.70;99.90;;;;;;5002145;28;20824;-70
2022/07/26 05:56:43;;;;;;;1.77;0.50;;;17.70;99.90;;;;;;5005524;28;20064;-69
2022/07/26 05:59:08;;;;;;;5.25;0.80;;;17.80;99.90;;;;;;5003171;28;20549;-70
2022/07/26 06:01:34;;;;;;;4.40;0.88;;;17.80;99.90;;;;;;5004177;28;20042;-70
2022/07/26 06:04:00;;;;;;;4.53;0.68;;;17.70;99.90;;;;;;5004237;28;20457;-73
2022/07/26 06:06:26;;;;;;;2.20;0.75;;;17.70;99.90;;;;;;5002420;28;20065;-72
2022/07/26 06:08:51;;;;;;;4.68;0.75;;;17.70;99.90;;;;;;5003435;28;20054;-71
2022/07/26 06:11:17;;;;;;;4.90;1.20;;;17.70;99.90;;;;;;5003022;28;20033;-72
2022/07/26 06:13:43;;;;;;;2.05;0.52;;;17.60;99.90;;;;;;5004255;28;20129;-71
2022/07/26 06:16:08;;;;;;;2.30;0.63;;;17.60;99.90;;;;;;5002589;28;20506;-72
2022/07/26 06:18:34;;;;;;;5.10;0.60;;;17.60;99.90;;;;;;5003567;28;20139;-72
2022/07/26 06:21:00;;;;;;;6.25;0.75;;;17.60;99.90;;;;;;5002499;28;20034;-73
2022/07/26 06:23:25;;;;;;;4.75;0.80;;;17.60;99.90;;;;;;5001248;28;20038;-70
2022/07/26 06:25:51;;;;;;;5.22;0.50;;;17.50;99.90;;;;;;5003803;28;20026;-71
2022/07/26 06:28:17;;;;;;;3.72;0.50;;;17.50;99.90;;;;;;5002561;28;20096;-72
2022/07/26 06:30:43;;;;;;;2.97;0.50;;;17.50;99.90;;;;;;4999103;28;20518;-72
2022/07/26 06:33:10;;;;;;;3.72;0.43;;;17.50;99.90;;;;;;5002058;28;20132;-72
2022/07/26 06:35:37;;;;;;;4.65;0.68;;;17.40;99.90;;;;;;5002756;28;20040;-70
2022/07/26 06:38:04;;;;;;;8.73;0.85;;;17.40;99.90;;;;;;5005242;28;20034;-72
2022/07/26 06:40:30;;;;;;;3.38;0.57;;;17.40;99.90;;;;;;5001512;28;20111;-72
2022/07/26 06:42:57;;;;;;;7.80;0.65;;;17.40;99.90;;;;;;5000643;28;20079;-72
2022/07/26 06:45:22;;;;;;;5.65;1.00;;;17.50;99.90;;;;;;5000830;28;20050;-72
2022/07/26 06:47:48;;;;;;;3.40;0.52;;;17.50;99.90;;;;;;5002194;28;20037;-72
2022/07/26 06:50:14;;;;;;;4.53;0.80;;;17.60;99.90;;;;;;5000714;28;20045;-73
2022/07/26 06:52:39;;;;;;;6.07;0.82;;;17.70;99.90;;;;;;5000656;28;20048;-72
2022/07/26 06:55:06;;;;;;;3.88;1.05;;;17.70;99.90;;;;;;5004028;28;20040;-71
2022/07/26 06:57:31;;;;;;;5.30;0.63;;;17.70;99.90;;;;;;5001828;28;20077;-71
2022/07/26 06:59:57;;;;;;;3.53;0.60;;;17.70;99.90;;;;;;5006296;28;20099;-72
2022/07/26 07:02:23;;;;;;;3.70;0.63;;;17.70;99.90;;;;;;5003248;28;20081;-70
2022/07/26 07:04:48;;;;;;;5.95;0.60;;;17.70;99.90;;;;;;5003230;28;20139;-72
2022/07/26 07:07:14;;;;;;;8.00;0.85;;;17.70;99.90;;;;;;5006690;28;20672;-73
2022/07/26 07:09:40;;;;;;;6.18;0.90;;;17.70;99.90;;;;;;5001471;28;20506;-72
2022/07/26 07:12:06;;;;;;;1.55;0.40;;;17.50;99.90;;;;;;5001741;28;20038;-70
2022/07/26 07:14:32;;;;;;;1.42;0.35;;;17.30;99.90;;;;;;5002386;28;20045;-71
2022/07/26 07:16:58;;;;;;;2.30;0.52;;;17.10;99.90;;;;;;5005669;28;20030;-72
2022/07/26 07:19:24;;;;;;;5.90;0.82;;;17.00;99.90;;;;;;5002294;28;20387;-72
2022/07/26 07:21:50;;;;;;;5.95;1.08;;;16.90;99.90;;;;;;5004510;28;20070;-70
2022/07/26 07:24:16;;;;;;;2.72;0.40;;;16.90;99.90;;;;;;5001209;28;20033;-71
2022/07/26 07:26:42;;;;;;;0.65;0.28;;;17.00;99.90;;;;;;5002007;28;20029;-71
2022/07/26 07:29:11;;;;;;;5.05;0.40;;;17.10;99.90;;;;;;5004270;28;20034;-72
2022/07/26 07:31:37;;;;;;;2.30;0.30;;;17.20;99.90;;;;;;5000310;28;20034;-70
2022/07/26 07:34:03;;;;;;;6.43;0.60;;;17.30;99.90;;;;;;5002551;28;20061;-71
2022/07/26 07:36:29;;;;;;;7.05;0.47;;;17.40;99.90;;;;;;5004381;28;20060;-71
2022/07/26 07:38:54;;;;;;;3.80;0.68;;;17.50;99.90;;;;;;5008637;28;20038;-72
2022/07/26 07:41:20;;;;;;;2.97;0.38;;;17.60;99.90;;;;;;5001622;28;20072;-71
2022/07/26 07:43:45;;;;;;;1.77;0.40;;;17.90;99.90;;;;;;5003713;28;20041;-72
2022/07/26 07:46:11;;;;;;;4.32;0.47;;;18.10;99.90;;;;;;5000504;28;20033;-72
2022/07/26 07:48:37;;;;;;;2.72;0.20;;;18.40;99.90;;;;;;5001307;28;20038;-70
2022/07/26 07:51:02;;;;;;;6.68;0.77;;;19.00;99.90;;;;;;5005673;28;20049;-72
2022/07/26 07:53:28;;;;;;;2.50;0.30;;;19.20;99.90;;;;;;4999739;28;20042;-70
2022/07/26 07:55:54;;;;;;;1.70;0.17;;;19.30;99.90;;;;;;5001574;28;20030;-72
2022/07/26 07:58:19;;;;;;;2.25;0.45;;;19.50;99.90;;;;;;4999464;28;20511;-72
2022/07/26 08:00:46;;;;;;;2.22;0.43;;;19.80;99.90;;;;;;5005413;28;20515;-72
2022/07/26 08:03:11;;;;;;;3.63;0.40;;;19.80;99.90;;;;;;5001376;28;20036;-74
2022/07/26 08:05:37;;;;;;;3.22;0.50;;;19.80;99.90;;;;;;5002403;28;20034;-71
2022/07/26 08:08:03;;;;;;;2.40;0.22;;;19.80;99.90;;;;;;5003507;28;20556;-72
2022/07/26 08:10:29;;;;;;;6.10;0.50;;;19.60;99.90;;;;;;4999777;28;20125;-71
2022/07/26 08:12:55;;;;;;;2.00;0.20;;;19.30;99.90;;;;;;5003950;28;20030;-72
2022/07/26 08:15:22;;;;;;;1.38;0.47;;;19.10;99.90;;;;;;5002890;28;20088;-72
2022/07/26 08:17:48;;;;;;;2.22;0.25;;;18.90;99.90;;;;;;5002500;28;20477;-72
2022/07/26 08:20:14;;;;;;;0.68;0.10;;;18.70;99.90;;;;;;5000127;28;20030;-71
2022/07/26 08:22:39;;;;;;;1.45;0.10;;;18.70;99.90;;;;;;5005497;28;20038;-72
2022/07/26 08:25:06;;;;;;;1.95;0.30;;;18.70;99.90;;;;;;5005300;28;20101;-72
2022/07/26 08:27:31;;;;;;;2.42;0.13;;;18.90;99.90;;;;;;5004246;28;20037;-71
2022/07/26 08:29:57;;;;;;;4.57;0.30;;;19.10;99.90;;;;;;5006425;28;20033;-73
2022/07/26 08:32:23;;;;;;;3.00;0.20;;;19.40;99.90;;;;;;5005859;28;20579;-71
2022/07/26 08:34:48;;;;;;;3.13;0.57;;;19.50;99.90;;;;;;5006598;28;20462;-72
2022/07/26 08:37:14;;;;;;;5.45;0.43;;;19.50;99.90;;;;;;5003690;28;20030;-73
2022/07/26 08:39:39;;;;;;;4.93;0.52;;;19.40;99.90;;;;;;5007824;28;20502;-72
2022/07/26 08:42:13;;;;;;;2.38;0.40;;;19.20;99.90;;;;;;5007765;28;20038;-71
2022/07/26 08:44:42;;;;;;;1.17;0.20;;;19.00;99.90;;;;;;5004260;28;20037;-72
2022/07/26 08:47:10;;;;;;;2.53;0.60;;;19.00;99.90;;;;;;5002502;28;20100;-72
2022/07/26 08:49:36;;;;;;;2.08;0.40;;;18.90;99.90;;;;;;5006280;28;20166;-71
2022/07/26 08:52:02;;;;;;;2.78;0.40;;;18.90;99.90;;;;;;5006375;28;20034;-72
2022/07/26 08:54:27;;;;;;;2.67;0.47;;;19.10;99.90;;;;;;5002371;28;20046;-72
2022/07/26 08:56:53;;;;;;;2.42;0.28;;;19.30;99.90;;;;;;5006582;28;20030;-72
2022/07/26 08:59:19;;;;;;;4.35;0.10;;;19.60;99.90;;;;;;5005797;28;20049;-72
2022/07/26 09:02:02;;;;;;;4.18;0.20;;;19.70;99.90;;;;;;5003810;28;20061;-72
2022/07/26 09:04:36;;;;;;;2.42;0.10;;;19.80;99.90;;;;;;5004341;28;20069;-71
2022/07/26 09:07:07;;;;;;;1.88;0.30;;;19.80;99.90;;;;;;5008517;28;20057;-72
2022/07/26 09:09:38;;;;;;;1.88;0.10;;;19.70;99.90;;;;;;5005086;28;20069;-72
2022/07/26 09:12:18;;;;;;;2.38;0.30;;;19.70;99.90;;;;;;5003914;28;20632;-71
2022/07/26 09:14:45;;;;;;;1.92;0.45;;;19.70;99.90;;;;;;5005074;28;20069;-72
2022/07/26 09:17:12;;;;;;;1.65;0.47;;;19.80;99.90;;;;;;5005866;28;20037;-72
2022/07/26 09:19:38;;;;;;;1.25;0.20;;;19.80;99.90;;;;;;5006539;28;20398;-72
2022/07/26 09:22:15;;;;;;;2.97;0.10;;;19.90;99.90;;;;;;5005543;28;20034;-73
2022/07/26 09:24:43;;;;;;;1.73;0.20;;;19.90;99.90;;;;;;5002625;28;20143;-72
2022/07/26 09:27:14;;;;;;;1.90;0.55;;;19.80;99.90;;;;;;5006246;28;20045;-72
2022/07/26 09:29:49;;;;;;;0.98;0.43;;;19.80;99.90;;;;;;5004850;28;20044;-72
2022/07/26 09:32:20;;;;;;;6.15;0.88;;;19.70;99.90;;;;;;5004291;28;20038;-70
2022/07/26 09:34:51;;;;;;;4.03;0.52;;;19.60;99.90;;;;;;5005878;28;20169;-72
2022/07/26 09:37:17;;;;;;;2.40;0.20;;;19.40;99.90;;;;;;5005458;28;20100;-70
2022/07/26 09:39:57;;;;;;;1.55;0.17;;;19.20;99.90;;;;;;5002619;28;20037;-72
2022/07/26 09:42:24;;;;;;;2.55;0.17;;;19.00;99.90;;;;;;5004470;28;20034;-71
2022/07/26 09:44:50;;;;;;;0.88;0.17;;;18.60;99.90;;;;;;5007343;28;20060;-71
2022/07/26 09:47:16;;;;;;;2.72;0.10;;;18.40;99.90;;;;;;5000273;28;20805;-72
2022/07/26 09:49:42;;;;;;;2.17;0.20;;;18.20;99.90;;;;;;5002719;28;20038;-71
2022/07/26 09:52:19;;;;;;;3.35;0.30;;;18.10;99.90;;;;;;5002205;28;20034;-71
2022/07/26 09:54:47;;;;;;;0.15;0.00;;;18.00;99.90;;;;;;4998826;28;20042;-71
2022/07/26 09:57:19;;;;;;;1.55;0.15;;;18.00;99.90;;;;;;5002767;28;20036;-71
2022/07/26 09:59:46;;;;;;;5.07;0.20;;;18.00;99.90;;;;;;5000854;28;20093;-72
2022/07/26 10:02:13;;;;;;;1.80;0.28;;;18.10;99.90;;;;;;4998366;28;20037;-70
2022/07/26 10:04:41;;;;;;;1.98;0.52;;;18.20;99.90;;;;;;5000245;28;20041;-72
2022/07/26 10:07:08;;;;;;;3.63;1.20;;;18.30;99.90;;;;;;4999415;28;20092;-71
2022/07/26 10:09:53;;;;;;;0.63;0.20;;;18.40;99.90;;;;;;4999031;28;20039;-72
2022/07/26 10:12:22;;;;;;;2.38;0.28;;;18.60;99.90;;;;;;4999758;28;20046;-69
2022/07/26 10:14:51;;;;;;;0.70;0.10;;;18.70;99.90;;;;;;5002460;28;20096;-72
2022/07/26 10:17:28;;;;;;;5.85;0.43;;;18.90;99.90;;;;;;4999625;28;20080;-72
2022/07/26 10:19:56;;;;;;;3.03;0.40;;;19.10;99.90;;;;;;5000692;28;20482;-72
2022/07/26 10:22:22;;;;;;;0.80;0.10;;;19.20;99.90;;;;;;4997539;28;20148;-69
2022/07/26 10:24:48;;;;;;;4.35;0.82;;;19.40;99.90;;;;;;4999586;28;20177;-71
2022/07/26 10:27:36;;;;;;;1.30;0.30;;;19.50;99.90;;;;;;5000436;28;20121;-72
2022/07/26 10:30:24;;;;;;;3.80;0.75;;;19.50;99.90;;;;;;5000886;28;20065;-72
2022/07/26 10:32:49;;;;;;;2.70;0.20;;;19.30;99.90;;;;;;5000552;28;20041;-72
2022/07/26 10:35:35;;;;;;;4.00;0.20;;;19.00;99.90;;;;;;5000106;28;20109;-72
2022/07/26 10:38:01;;;;;;;4.72;0.95;;;18.90;99.90;;;;;;5004705;28;20065;-72
2022/07/26 10:40:31;;;;;;;7.00;0.63;;;18.70;99.90;;;;;;4997364;28;20034;-71
2022/07/26 10:43:10;;;;;;;7.38;0.73;;;18.60;99.90;;;;;;5000039;28;20118;-72
2022/07/26 10:45:37;;;;;;;5.30;0.50;;;18.60;99.90;;;;;;5004098;28;20038;-72
2022/07/26 10:48:17;;;;;;;4.70;0.75;;;18.70;99.90;;;;;;5005632;28;20037;-72
2022/07/26 10:50:49;;;;;;;9.15;0.93;;;18.70;99.90;;;;;;5001830;28;20045;-72
2022/07/26 10:53:24;;;;;;;2.90;0.32;;;18.80;99.90;;;;;;5003157;28;20114;-72
2022/07/26 10:55:55;;;;;;;5.75;0.93;;;18.90;99.90;;;;;;5003419;28;20072;-71
2022/07/26 10:58:22;;;;;;;5.32;0.57;;;19.20;99.90;;;;;;5003086;28;20045;-73
2022/07/26 11:00:58;;;;;;;1.95;0.25;;;19.40;99.90;;;;;;5002902;28;20535;-72
2022/07/26 11:03:23;;;;;;;6.28;0.50;;;19.50;99.90;;;;;;5000781;28;20049;-73
2022/07/26 11:05:50;;;;;;;3.92;0.70;;;19.70;99.90;;;;;;5002577;28;20578;-71
2022/07/26 11:08:15;;;;;;;3.78;0.20;;;19.90;99.90;;;;;;5003516;28;20057;-72
2022/07/26 11:10:47;;;;;;;2.17;0.10;;;20.10;99.90;;;;;;5001481;28;20064;-71
2022/07/26 11:13:21;;;;;;;2.00;0.30;;;20.30;99.90;;;;;;5003567;28;20038;-72
2022/07/26 11:16:00;;;;;;;0.98;0.20;;;20.50;99.90;;;;;;5002479;28;20061;-71
2022/07/26 11:18:31;;;;;;;4.30;0.63;;;20.50;99.90;;;;;;5003738;28;20025;-70
2022/07/26 11:21:11;;;;;;;2.50;0.40;;;20.30;99.90;;;;;;5003530;28;20034;-71
2022/07/26 11:23:38;;;;;;;2.25;0.65;;;19.90;99.90;;;;;;5003925;28;20037;-73
2022/07/26 11:26:16;;;;;;;5.28;0.50;;;19.80;99.90;;;;;;5004199;28;20034;-73
2022/07/26 11:28:46;;;;;;;1.77;0.17;;;19.70;99.90;;;;;;5001449;28;20030;-71
2022/07/26 11:31:12;;;;;;;5.40;0.47;;;20.00;99.90;;;;;;5002739;28;20030;-70
2022/07/26 11:33:39;;;;;;;3.85;0.20;;;20.20;99.90;;;;;;5002357;28;20038;-72
2022/07/26 11:36:06;;;;;;;4.78;0.50;;;20.30;99.90;;;;;;5001352;28;20034;-72
2022/07/26 11:38:48;;;;;;;5.38;0.40;;;20.40;99.90;;;;;;5004408;28;20451;-73
2022/07/26 11:41:18;;;;;;;5.68;0.68;;;20.70;99.90;;;;;;5001371;28;20698;-72
2022/07/26 11:43:43;;;;;;;1.57;0.47;;;20.90;99.90;;;;;;5001163;28;20830;-71
2022/07/26 11:46:09;;;;;;;3.05;0.28;;;21.10;99.90;;;;;;5002459;28;20285;-72
2022/07/26 11:48:35;;;;;;;2.80;0.30;;;21.10;99.90;;;;;;5004096;28;20037;-72
2022/07/26 11:51:11;;;;;;;2.92;0.82;;;21.40;99.90;;;;;;5003549;28;20105;-71
2022/07/26 11:53:37;;;;;;;4.68;0.60;;;21.40;99.90;;;;;;5000435;28;20037;-73
2022/07/26 11:56:10;;;;;;;1.05;0.28;;;21.50;99.90;;;;;;5002390;28;20061;-70
2022/07/26 11:58:38;;;;;;;2.47;0.68;;;21.60;99.90;;;;;;4998857;28;20033;-72
2022/07/26 12:01:05;;;;;;;1.92;0.30;;;21.60;99.90;;;;;;5005090;28;20026;-73
2022/07/26 12:03:37;;;;;;;2.58;0.28;;;21.40;99.90;;;;;;4999941;28;20621;-73
2022/07/26 12:06:08;;;;;;;1.75;0.22;;;21.30;99.90;;;;;;5004240;28;20069;-72
2022/07/26 12:08:49;;;;;;;1.75;0.20;;;21.20;99.90;;;;;;5000827;28;20041;-72
2022/07/26 12:11:16;;;;;;;5.05;0.60;;;21.10;99.90;;;;;;5001498;28;20038;-71
2022/07/26 12:13:52;;;;;;;4.55;0.40;;;21.10;99.90;;;;;;5000433;28;20038;-73
2022/07/26 12:16:50;;;;;;;3.40;0.60;;;21.20;99.90;;;;;;5002014;28;20046;-73
2022/07/26 12:19:16;;;;;;;4.47;0.43;;;21.30;99.90;;;;;;4987542;28;20058;-73
2022/07/26 12:21:53;;;;;;;5.70;0.93;;;21.20;99.90;;;;;;5003893;28;20137;-72
2022/07/26 12:24:40;;;;;;;1.92;0.30;;;21.00;99.90;;;;;;5001666;28;20668;-72
2022/07/26 12:27:10;;;;;;;4.88;0.55;;;21.00;99.90;;;;;;5002752;28;20038;-71
2022/07/26 12:29:37;;;;;;;;;;;20.70;99.90;;;;;;5003369;28;20030;-73
2022/07/26 12:32:11;;;;;;;3.75;0.50;;;20.60;99.90;;;;;;5003429;28;19920;-73
2022/07/26 12:34:37;;;;;;;3.35;0.38;;;20.70;99.90;;;;;;5001062;28;20056;-73
2022/07/26 12:37:12;;;;;;;3.70;0.38;;;20.90;99.90;;;;;;5004466;28;20469;-72
2022/07/26 12:39:38;;;;;;;1.65;0.30;;;21.10;99.90;;;;;;5006218;28;20092;-73
2022/07/26 12:42:28;;;;;;;2.33;0.60;;;21.20;99.90;;;;;;5002339;28;20402;-72
2022/07/26 12:44:54;;;;;;;5.95;1.67;;;21.30;99.90;;;;;;4998463;28;20045;-73
2022/07/26 12:47:20;;;;;;;5.00;0.85;;;21.40;99.90;;;;;;5000958;28;20410;-71